sensor_id;sensor_type;location;lat;lon;timestamp;pressure;altitude;pressure_sealevel;temperature;humidity
11648;BME280;5880;52.342;9.662;2022-10-10T00:01:18;101153.75;;;14.86;46.71
11648;BME280;5880;52.342;9.662;2022-10-10T00:03:44;101146.31;;;14.86;47.06
11648;BME280;5880;52.342;9.662;2022-10-10T00:06:11;101144.44;;;14.87;46.82
11648;BME280;5880;52.342;9.662;2022-10-10T00:08:38;101138.94;;;14.87;46.70
11648;BME280;5880;52.342;9.662;2022-10-10T00:11:04;101129.81;;;14.86;46.79
11648;BME280;5880;52.342;9.662;2022-10-10T00:13:30;101124.00;;;14.83;46.73
11648;BME280;5880;52.342;9.662;2022-10-10T00:15:56;101128.97;;;14.86;46.72
11648;BME280;5880;52.342;9.662;2022-10-10T00:18:22;101128.16;;;14.85;46.81
11648;BME280;5880;52.342;9.662;2022-10-10T00:20:50;101117.38;;;14.84;46.79
11648;BME280;5880;52.342;9.662;2022-10-10T00:23:17;101120.97;;;14.84;46.77
11648;BME280;5880;52.342;9.662;2022-10-10T00:25:43;101121.72;;;14.80;46.76
11648;BME280;5880;52.342;9.662;2022-10-10T00:28:09;101117.38;;;14.84;46.86
11648;BME280;5880;52.342;9.662;2022-10-10T00:30:34;101111.06;;;14.83;46.95
11648;BME280;5880;52.342;9.662;2022-10-10T00:33:00;101104.13;;;14.81;46.98
11648;BME280;5880;52.342;9.662;2022-10-10T00:35:27;101112.72;;;14.84;46.82
11648;BME280;5880;52.342;9.662;2022-10-10T00:37:53;101103.91;;;14.82;47.12
11648;BME280;5880;52.342;9.662;2022-10-10T00:40:19;101100.03;;;14.83;47.05
11648;BME280;5880;52.342;9.662;2022-10-10T00:42:46;101101.16;;;14.82;47.07
11648;BME280;5880;52.342;9.662;2022-10-10T00:45:29;101101.97;;;14.83;47.08
11648;BME280;5880;52.342;9.662;2022-10-10T00:48:15;101095.06;;;14.80;47.03
11648;BME280;5880;52.342;9.662;2022-10-10T00:50:56;101094.78;;;14.82;47.11
11648;BME280;5880;52.342;9.662;2022-10-10T00:53:30;101087.63;;;14.81;46.90
11648;BME280;5880;52.342;9.662;2022-10-10T00:55:58;101090.38;;;14.81;47.20
11648;BME280;5880;52.342;9.662;2022-10-10T00:58:24;101084.88;;;14.81;47.00
11648;BME280;5880;52.342;9.662;2022-10-10T01:00:52;101084.88;;;14.81;47.13
11648;BME280;5880;52.342;9.662;2022-10-10T01:03:19;101089.53;;;14.80;47.00
11648;BME280;5880;52.342;9.662;2022-10-10T01:05:46;101089.53;;;14.80;47.08
11648;BME280;5880;52.342;9.662;2022-10-10T01:08:13;101076.84;;;14.79;47.17
11648;BME280;5880;52.342;9.662;2022-10-10T01:10:59;101084.88;;;14.81;47.11
11648;BME280;5880;52.342;9.662;2022-10-10T01:25:18;101081.22;;;14.75;47.15
11648;BME280;5880;52.342;9.662;2022-10-10T01:28:29;101070.69;;;14.72;46.99
11648;BME280;5880;52.342;9.662;2022-10-10T01:30:59;101072.03;;;14.69;47.18
11648;BME280;5880;52.342;9.662;2022-10-10T01:36:31;101066.59;;;14.74;47.07
11648;BME280;5880;52.342;9.662;2022-10-10T01:39:20;101063.03;;;14.74;47.07
11648;BME280;5880;52.342;9.662;2022-10-10T01:42:09;101056.69;;;14.73;47.08
11648;BME280;5880;52.342;9.662;2022-10-10T01:44:46;101051.69;;;14.70;47.18
11648;BME280;5880;52.342;9.662;2022-10-10T01:47:13;101048.09;;;14.70;46.98
11648;BME280;5880;52.342;9.662;2022-10-10T01:49:43;101047.84;;;14.71;47.23
11648;BME280;5880;52.342;9.662;2022-10-10T01:53:14;101048.69;;;14.72;47.04
11648;BME280;5880;52.342;9.662;2022-10-10T01:56:00;101040.94;;;14.69;47.15
11648;BME280;5880;52.342;9.662;2022-10-10T01:59:23;101037.81;;;14.65;47.03
11648;BME280;5880;52.342;9.662;2022-10-10T02:02:06;101038.94;;;14.64;47.04
11648;BME280;5880;52.342;9.662;2022-10-10T02:04:48;101036.16;;;14.64;47.11
11648;BME280;5880;52.342;9.662;2022-10-10T02:07:36;101042.75;;;14.63;47.15
11648;BME280;5880;52.342;9.662;2022-10-10T02:10:07;101039.16;;;14.63;47.13
11648;BME280;5880;52.342;9.662;2022-10-10T02:12:34;101035.34;;;14.64;47.16
11648;BME280;5880;52.342;9.662;2022-10-10T02:15:14;101030.91;;;14.63;47.12
11648;BME280;5880;52.342;9.662;2022-10-10T02:17:44;101019.31;;;14.61;47.02
11648;BME280;5880;52.342;9.662;2022-10-10T02:20:13;101011.81;;;14.56;46.81
11648;BME280;5880;52.342;9.662;2022-10-10T02:22:45;101015.16;;;14.58;47.08
11648;BME280;5880;52.342;9.662;2022-10-10T02:25:12;101020.06;;;14.56;46.80
11648;BME280;5880;52.342;9.662;2022-10-10T02:27:43;101022.81;;;14.56;47.07
11648;BME280;5880;52.342;9.662;2022-10-10T02:30:12;101016.97;;;14.52;46.90
11648;BME280;5880;52.342;9.662;2022-10-10T02:32:48;101024.63;;;14.50;46.96
11648;BME280;5880;52.342;9.662;2022-10-10T02:35:30;101010.22;;;14.43;46.84
11648;BME280;5880;52.342;9.662;2022-10-10T02:37:59;101000.53;;;14.41;46.87
11648;BME280;5880;52.342;9.662;2022-10-10T02:40:30;101009.38;;;14.43;46.99
11648;BME280;5880;52.342;9.662;2022-10-10T02:43:00;101012.59;;;14.40;46.97
11648;BME280;5880;52.342;9.662;2022-10-10T02:45:29;101002.63;;;14.33;47.18
11648;BME280;5880;52.342;9.662;2022-10-10T02:48:00;101000.19;;;14.37;47.01
11648;BME280;5880;52.342;9.662;2022-10-10T02:50:28;101003.22;;;14.35;47.06
11648;BME280;5880;52.342;9.662;2022-10-10T02:52:55;100997.94;;;14.34;47.29
11648;BME280;5880;52.342;9.662;2022-10-10T02:55:21;101009.78;;;14.34;47.19
11648;BME280;5880;52.342;9.662;2022-10-10T02:57:47;101015.28;;;14.34;47.36
11648;BME280;5880;52.342;9.662;2022-10-10T03:00:14;101000.94;;;14.32;47.36
11648;BME280;5880;52.342;9.662;2022-10-10T03:02:39;101008.13;;;14.33;47.32
11648;BME280;5880;52.342;9.662;2022-10-10T03:05:06;101007.03;;;14.34;47.38
11648;BME280;5880;52.342;9.662;2022-10-10T03:07:32;101009.53;;;14.36;47.38
11648;BME280;5880;52.342;9.662;2022-10-10T03:09:58;101008.72;;;14.35;47.44
11648;BME280;5880;52.342;9.662;2022-10-10T03:12:23;101002.09;;;14.36;47.54
11648;BME280;5880;52.342;9.662;2022-10-10T03:14:49;100984.69;;;14.31;47.53
11648;BME280;5880;52.342;9.662;2022-10-10T03:17:15;100998.53;;;14.36;47.50
11648;BME280;5880;52.342;9.662;2022-10-10T03:19:41;100990.28;;;14.36;47.53
11648;BME280;5880;52.342;9.662;2022-10-10T03:22:07;100980.84;;;14.32;47.41
11648;BME280;5880;52.342;9.662;2022-10-10T03:24:32;100984.78;;;14.36;47.48
11648;BME280;5880;52.342;9.662;2022-10-10T03:26:58;100989.47;;;14.35;47.58
11648;BME280;5880;52.342;9.662;2022-10-10T03:29:24;100985.84;;;14.35;47.67
11648;BME280;5880;52.342;9.662;2022-10-10T03:31:50;100983.97;;;14.35;47.67
11648;BME280;5880;52.342;9.662;2022-10-10T03:34:16;100983.97;;;14.35;47.60
11648;BME280;5880;52.342;9.662;2022-10-10T03:36:42;100979.28;;;14.36;47.67
11648;BME280;5880;52.342;9.662;2022-10-10T03:39:07;100972.38;;;14.33;47.74
11648;BME280;5880;52.342;9.662;2022-10-10T03:41:35;100980.63;;;14.33;47.66
11648;BME280;5880;52.342;9.662;2022-10-10T03:44:00;100975.94;;;14.34;47.67
11648;BME280;5880;52.342;9.662;2022-10-10T03:46:26;100975.94;;;14.34;47.73
11648;BME280;5880;52.342;9.662;2022-10-10T03:48:52;100977.88;;;14.33;47.67
11648;BME280;5880;52.342;9.662;2022-10-10T03:51:18;100969.84;;;14.32;47.40
11648;BME280;5880;52.342;9.662;2022-10-10T03:53:44;100972.03;;;14.30;47.68
11648;BME280;5880;52.342;9.662;2022-10-10T03:56:10;100965.47;;;14.31;47.70
11648;BME280;5880;52.342;9.662;2022-10-10T03:58:36;100969.28;;;14.30;47.80
11648;BME280;5880;52.342;9.662;2022-10-10T04:01:03;100959.38;;;14.29;47.60
11648;BME280;5880;52.342;9.662;2022-10-10T04:03:30;100967.63;;;14.29;47.67
11648;BME280;5880;52.342;9.662;2022-10-10T04:05:56;100971.44;;;14.28;47.62
11648;BME280;5880;52.342;9.662;2022-10-10T04:08:22;100954.03;;;14.22;47.69
11648;BME280;5880;52.342;9.662;2022-10-10T04:10:53;100961.78;;;14.25;47.51
11648;BME280;5880;52.342;9.662;2022-10-10T04:13:20;100950.44;;;14.22;47.78
11648;BME280;5880;52.342;9.662;2022-10-10T04:15:50;100962.28;;;14.22;47.74
11648;BME280;5880;52.342;9.662;2022-10-10T04:18:16;100958.09;;;14.20;47.61
11648;BME280;5880;52.342;9.662;2022-10-10T04:20:42;100942.69;;;14.19;47.68
11648;BME280;5880;52.342;9.662;2022-10-10T04:23:07;100939.38;;;14.17;47.79
11648;BME280;5880;52.342;9.662;2022-10-10T04:25:33;100939.63;;;14.15;47.75
11648;BME280;5880;52.342;9.662;2022-10-10T04:27:59;100933.28;;;14.14;47.64
11648;BME280;5880;52.342;9.662;2022-10-10T04:30:25;100927.72;;;14.09;47.80
11648;BME280;5880;52.342;9.662;2022-10-10T04:32:50;100930.78;;;14.13;47.85
11648;BME280;5880;52.342;9.662;2022-10-10T04:35:16;100930.78;;;14.13;47.85
11648;BME280;5880;52.342;9.662;2022-10-10T04:37:42;100927.19;;;14.12;47.76
11648;BME280;5880;52.342;9.662;2022-10-10T04:40:08;100930.78;;;14.13;47.67
11648;BME280;5880;52.342;9.662;2022-10-10T04:42:34;100926.03;;;14.08;47.82
11648;BME280;5880;52.342;9.662;2022-10-10T04:45:00;100927.72;;;14.09;47.81
11648;BME280;5880;52.342;9.662;2022-10-10T04:47:25;100928.25;;;14.11;47.76
11648;BME280;5880;52.342;9.662;2022-10-10T04:49:51;100926.84;;;14.09;47.66
11648;BME280;5880;52.342;9.662;2022-10-10T04:52:17;100927.94;;;14.08;47.71
11648;BME280;5880;52.342;9.662;2022-10-10T04:54:42;100923.50;;;14.07;47.84
11648;BME280;5880;52.342;9.662;2022-10-10T04:57:08;100924.38;;;14.07;47.86
11648;BME280;5880;52.342;9.662;2022-10-10T04:59:33;100922.69;;;14.06;47.92
11648;BME280;5880;52.342;9.662;2022-10-10T05:01:59;100916.38;;;14.06;47.84
11648;BME280;5880;52.342;9.662;2022-10-10T05:04:25;100916.59;;;14.04;47.90
11648;BME280;5880;52.342;9.662;2022-10-10T05:06:51;100916.00;;;14.02;47.93
11648;BME280;5880;52.342;9.662;2022-10-10T05:09:16;100906.34;;;14.00;47.99
11648;BME280;5880;52.342;9.662;2022-10-10T05:11:42;100901.13;;;13.98;48.14
11648;BME280;5880;52.342;9.662;2022-10-10T05:14:07;100906.63;;;13.98;48.14
11648;BME280;5880;52.342;9.662;2022-10-10T05:16:34;100903.00;;;13.98;48.22
11648;BME280;5880;52.342;9.662;2022-10-10T05:18:59;100901.94;;;13.99;48.29
11648;BME280;5880;52.342;9.662;2022-10-10T05:21:26;100901.13;;;13.98;48.19
11648;BME280;5880;52.342;9.662;2022-10-10T05:23:53;100896.44;;;13.99;48.17
11648;BME280;5880;52.342;9.662;2022-10-10T05:26:19;100896.44;;;13.99;48.35
11648;BME280;5880;52.342;9.662;2022-10-10T05:28:46;100896.22;;;14.00;48.24
11648;BME280;5880;52.342;9.662;2022-10-10T05:31:12;100892.03;;;13.98;48.27
11648;BME280;5880;52.342;9.662;2022-10-10T05:33:38;100901.94;;;13.99;48.27
11648;BME280;5880;52.342;9.662;2022-10-10T05:36:11;100891.53;;;14.01;48.33
11648;BME280;5880;52.342;9.662;2022-10-10T05:38:38;100901.94;;;13.99;48.22
11648;BME280;5880;52.342;9.662;2022-10-10T05:41:05;100899.19;;;13.99;48.29
11648;BME280;5880;52.342;9.662;2022-10-10T05:43:31;100887.63;;;13.97;48.33
11648;BME280;5880;52.342;9.662;2022-10-10T05:45:57;100892.88;;;13.98;48.35
11648;BME280;5880;52.342;9.662;2022-10-10T05:48:23;100892.88;;;13.98;48.49
11648;BME280;5880;52.342;9.662;2022-10-10T05:50:53;100885.69;;;13.97;48.32
11648;BME280;5880;52.342;9.662;2022-10-10T05:53:22;100884.88;;;13.97;48.19
11648;BME280;5880;52.342;9.662;2022-10-10T05:55:48;100875.22;;;13.94;48.40
11648;BME280;5880;52.342;9.662;2022-10-10T05:58:14;100880.72;;;13.94;48.60
11648;BME280;5880;52.342;9.662;2022-10-10T06:00:42;100874.38;;;13.93;48.63
11648;BME280;5880;52.342;9.662;2022-10-10T06:03:10;100866.31;;;13.87;48.48
11648;BME280;5880;52.342;9.662;2022-10-10T06:05:40;100869.06;;;13.87;48.53
11648;BME280;5880;52.342;9.662;2022-10-10T06:08:06;100868.47;;;13.85;48.40
11648;BME280;5880;52.342;9.662;2022-10-10T06:10:41;100863.19;;;13.83;48.56
11648;BME280;5880;52.342;9.662;2022-10-10T06:13:10;100869.56;;;13.84;48.64
11648;BME280;5880;52.342;9.662;2022-10-10T06:15:36;100864.53;;;13.81;48.66
11648;BME280;5880;52.342;9.662;2022-10-10T06:18:02;100872.84;;;13.86;nan
11648;BME280;5880;52.342;9.662;2022-10-10T06:20:28;100876.47;;;13.86;49.14
11648;BME280;5880;52.342;9.662;2022-10-10T06:22:54;100878.94;;;13.88;48.79
11648;BME280;5880;52.342;9.662;2022-10-10T06:25:20;100875.97;;;13.89;48.78
11648;BME280;5880;52.342;9.662;2022-10-10T06:27:45;100875.72;;;13.91;49.08
11648;BME280;5880;52.342;9.662;2022-10-10T06:30:11;100876.03;;;13.94;48.83
11648;BME280;5880;52.342;9.662;2022-10-10T06:32:37;100883.53;;;13.99;49.03
11648;BME280;5880;52.342;9.662;2022-10-10T06:35:03;100887.69;;;14.02;48.91
11648;BME280;5880;52.342;9.662;2022-10-10T06:37:29;100886.38;;;14.04;48.98
11648;BME280;5880;52.342;9.662;2022-10-10T06:39:54;100889.69;;;14.06;48.98
11648;BME280;5880;52.342;9.662;2022-10-10T06:42:20;100886.38;;;14.04;48.94
11648;BME280;5880;52.342;9.662;2022-10-10T06:44:46;100890.06;;;14.10;49.05
11648;BME280;5880;52.342;9.662;2022-10-10T06:47:12;100889.53;;;14.13;49.04
11648;BME280;5880;52.342;9.662;2022-10-10T06:49:38;100894.81;;;14.14;48.98
11648;BME280;5880;52.342;9.662;2022-10-10T06:52:03;100881.38;;;14.18;49.05
11648;BME280;5880;52.342;9.662;2022-10-10T06:54:29;100892.97;;;14.20;49.07
11648;BME280;5880;52.342;9.662;2022-10-10T06:56:54;100891.38;;;14.24;49.17
11648;BME280;5880;52.342;9.662;2022-10-10T06:59:20;100889.81;;;14.28;49.23
11648;BME280;5880;52.342;9.662;2022-10-10T07:01:46;100884.63;;;14.32;49.37
11648;BME280;5880;52.342;9.662;2022-10-10T07:04:12;100892.72;;;14.39;49.45
11648;BME280;5880;52.342;9.662;2022-10-10T07:06:38;100891.72;;;14.45;49.36
11648;BME280;5880;52.342;9.662;2022-10-10T07:09:04;100882.94;;;14.48;49.44
11648;BME280;5880;52.342;9.662;2022-10-10T07:11:30;100885.78;;;14.53;49.45
11648;BME280;5880;52.342;9.662;2022-10-10T07:13:57;100890.56;;;14.57;49.42
11648;BME280;5880;52.342;9.662;2022-10-10T07:16:22;100887.03;;;14.62;49.47
11648;BME280;5880;52.342;9.662;2022-10-10T07:18:48;100887.94;;;14.68;49.37
11648;BME280;5880;52.342;9.662;2022-10-10T07:21:14;100899.03;;;14.73;49.65
11648;BME280;5880;52.342;9.662;2022-10-10T07:23:40;100892.50;;;14.79;49.92
11648;BME280;5880;52.342;9.662;2022-10-10T07:26:10;100884.00;;;14.81;49.81
11648;BME280;5880;52.342;9.662;2022-10-10T07:28:38;100889.56;;;14.86;49.60
11648;BME280;5880;52.342;9.662;2022-10-10T07:31:09;100890.56;;;14.96;49.59
11648;BME280;5880;52.342;9.662;2022-10-10T07:33:42;100894.44;;;15.01;49.63
11648;BME280;5880;52.342;9.662;2022-10-10T07:36:08;100887.34;;;15.05;49.70
11648;BME280;5880;52.342;9.662;2022-10-10T07:38:35;100894.59;;;15.11;49.70
11648;BME280;5880;52.342;9.662;2022-10-10T07:41:06;100896.56;;;15.15;49.72
11648;BME280;5880;52.342;9.662;2022-10-10T07:43:34;100882.88;;;15.20;49.82
11648;BME280;5880;52.342;9.662;2022-10-10T07:46:00;100889.53;;;15.25;49.87
11648;BME280;5880;52.342;9.662;2022-10-10T07:48:26;100894.25;;;15.29;49.80
11648;BME280;5880;52.342;9.662;2022-10-10T07:50:51;100890.75;;;15.34;49.85
11648;BME280;5880;52.342;9.662;2022-10-10T07:53:17;100894.63;;;15.38;49.92
11648;BME280;5880;52.342;9.662;2022-10-10T07:55:43;100878.19;;;15.43;49.85
11648;BME280;5880;52.342;9.662;2022-10-10T07:58:10;100884.31;;;15.50;49.89
11648;BME280;5880;52.342;9.662;2022-10-10T08:00:36;100874.69;;;15.53;49.93
11648;BME280;5880;52.342;9.662;2022-10-10T08:03:06;100875.03;;;15.61;50.08
11648;BME280;5880;52.342;9.662;2022-10-10T08:05:31;100872.09;;;15.68;49.97
11648;BME280;5880;52.342;9.662;2022-10-10T08:07:57;100873.84;;;15.74;50.03
11648;BME280;5880;52.342;9.662;2022-10-10T08:10:23;100868.38;;;15.79;49.93
11648;BME280;5880;52.342;9.662;2022-10-10T08:12:49;100870.34;;;15.84;50.02
11648;BME280;5880;52.342;9.662;2022-10-10T08:15:14;100865.97;;;15.88;50.02
11648;BME280;5880;52.342;9.662;2022-10-10T08:17:40;100869.34;;;15.95;50.13
11648;BME280;5880;52.342;9.662;2022-10-10T08:20:06;100867.47;;;16.01;49.98
11648;BME280;5880;52.342;9.662;2022-10-10T08:22:32;100862.84;;;16.07;50.16
11648;BME280;5880;52.342;9.662;2022-10-10T08:24:57;100870.03;;;16.13;50.08
11648;BME280;5880;52.342;9.662;2022-10-10T08:27:23;100864.59;;;16.18;50.02
11648;BME280;5880;52.342;9.662;2022-10-10T08:29:49;100864.63;;;16.23;50.05
11648;BME280;5880;52.342;9.662;2022-10-10T08:32:14;100871.00;;;16.29;50.06
11648;BME280;5880;52.342;9.662;2022-10-10T08:34:40;100869.13;;;16.34;49.94
11648;BME280;5880;52.342;9.662;2022-10-10T08:37:06;100871.63;;;16.41;50.11
11648;BME280;5880;52.342;9.662;2022-10-10T08:39:31;100870.00;;;16.45;49.99
11648;BME280;5880;52.342;9.662;2022-10-10T08:42:00;100873.34;;;16.52;50.00
11648;BME280;5880;52.342;9.662;2022-10-10T08:44:40;100864.03;;;16.58;50.11
11648;BME280;5880;52.342;9.662;2022-10-10T08:47:24;100861.88;;;16.65;50.09
11648;BME280;5880;52.342;9.662;2022-10-10T08:52:50;100852.53;;;16.77;50.07
11648;BME280;5880;52.342;9.662;2022-10-10T08:55:28;100852.88;;;16.85;50.17
11648;BME280;5880;52.342;9.662;2022-10-10T09:00:36;100847.69;;;16.99;50.12
11648;BME280;5880;52.342;9.662;2022-10-10T09:06:04;100837.81;;;17.14;50.04
11648;BME280;5880;52.342;9.662;2022-10-10T09:08:44;100835.91;;;17.19;49.98
11648;BME280;5880;52.342;9.662;2022-10-10T09:23:12;100830.53;;;17.81;50.67
11648;BME280;5880;52.342;9.662;2022-10-10T09:26:01;100832.44;;;18.21;50.72
11648;BME280;5880;52.342;9.662;2022-10-10T09:31:22;100823.72;;;18.94;49.56
11648;BME280;5880;52.342;9.662;2022-10-10T09:34:00;100825.00;;;19.17;49.53
11648;BME280;5880;52.342;9.662;2022-10-10T09:36:34;100819.31;;;19.38;49.55
11648;BME280;5880;52.342;9.662;2022-10-10T09:39:36;100820.50;;;19.71;49.63
11648;BME280;5880;52.342;9.662;2022-10-10T09:42:10;100818.81;;;20.10;49.28
11648;BME280;5880;52.342;9.662;2022-10-10T09:44:38;100820.28;;;20.60;49.10
11648;BME280;5880;52.342;9.662;2022-10-10T09:47:05;100825.06;;;21.22;48.45
11648;BME280;5880;52.342;9.662;2022-10-10T09:49:32;100823.03;;;21.84;47.82
11648;BME280;5880;52.342;9.662;2022-10-10T09:52:31;100829.44;;;22.50;47.18
11648;BME280;5880;52.342;9.662;2022-10-10T09:55:02;100827.25;;;23.16;46.54
11648;BME280;5880;52.342;9.662;2022-10-10T09:57:37;100831.84;;;23.71;45.61
11648;BME280;5880;52.342;9.662;2022-10-10T10:00:33;100825.38;;;24.30;45.35
11648;BME280;5880;52.342;9.662;2022-10-10T10:03:14;100824.47;;;24.74;44.16
11648;BME280;5880;52.342;9.662;2022-10-10T10:05:55;100835.75;;;25.09;43.55
11648;BME280;5880;52.342;9.662;2022-10-10T10:08:30;100832.75;;;25.45;42.98
11648;BME280;5880;52.342;9.662;2022-10-10T10:10:57;100834.06;;;25.74;42.46
11648;BME280;5880;52.342;9.662;2022-10-10T10:13:34;100841.47;;;25.96;42.12
11648;BME280;5880;52.342;9.662;2022-10-10T10:16:08;100844.56;;;26.12;41.58
11648;BME280;5880;52.342;9.662;2022-10-10T10:18:52;100839.28;;;26.10;41.01
11648;BME280;5880;52.342;9.662;2022-10-10T10:21:22;100842.00;;;25.89;41.12
11648;BME280;5880;52.342;9.662;2022-10-10T10:23:57;100837.66;;;25.48;41.08
11648;BME280;5880;52.342;9.662;2022-10-10T10:26:42;100847.09;;;25.04;40.84
11648;BME280;5880;52.342;9.662;2022-10-10T10:29:32;100841.75;;;24.45;41.31
11648;BME280;5880;52.342;9.662;2022-10-10T10:32:44;100846.81;;;23.89;41.69
11648;BME280;5880;52.342;9.662;2022-10-10T10:35:39;100852.44;;;23.39;42.25
11648;BME280;5880;52.342;9.662;2022-10-10T10:41:13;100844.72;;;22.67;42.84
11648;BME280;5880;52.342;9.662;2022-10-10T10:44:00;100839.63;;;22.41;43.23
11648;BME280;5880;52.342;9.662;2022-10-10T10:52:47;100838.00;;;21.69;43.53
11648;BME280;5880;52.342;9.662;2022-10-10T10:55:50;100835.78;;;21.53;43.87
11648;BME280;5880;52.342;9.662;2022-10-10T10:59:14;100823.19;;;21.36;43.89
11648;BME280;5880;52.342;9.662;2022-10-10T11:02:39;100831.97;;;21.24;44.34
11648;BME280;5880;52.342;9.662;2022-10-10T11:11:18;100828.34;;;21.05;44.74
11648;BME280;5880;52.342;9.662;2022-10-10T11:17:12;100818.41;;;20.99;44.77
11648;BME280;5880;52.342;9.662;2022-10-10T11:19:52;100823.16;;;20.98;44.84
11648;BME280;5880;52.342;9.662;2022-10-10T11:22:27;100817.06;;;20.96;44.74
11648;BME280;5880;52.342;9.662;2022-10-10T11:25:19;100824.25;;;20.97;44.47
11648;BME280;5880;52.342;9.662;2022-10-10T11:30:29;100818.16;;;20.95;44.52
11648;BME280;5880;52.342;9.662;2022-10-10T11:33:19;100825.41;;;20.96;45.01
11648;BME280;5880;52.342;9.662;2022-10-10T11:36:16;100814.28;;;20.96;45.08
11648;BME280;5880;52.342;9.662;2022-10-10T11:41:48;100820.91;;;21.00;45.04
11648;BME280;5880;52.342;9.662;2022-10-10T11:44:24;100821.41;;;21.02;45.07
11648;BME280;5880;52.342;9.662;2022-10-10T12:00:41;100819.13;;;21.28;45.11
11648;BME280;5880;52.342;9.662;2022-10-10T12:03:08;100819.66;;;21.31;45.30
11648;BME280;5880;52.342;9.662;2022-10-10T12:05:38;100814.03;;;21.36;45.33
11648;BME280;5880;52.342;9.662;2022-10-10T12:08:20;100817.88;;;21.40;45.41
11648;BME280;5880;52.342;9.662;2022-10-10T12:10:54;100803.38;;;21.43;45.65
11648;BME280;5880;52.342;9.662;2022-10-10T12:13:42;100791.13;;;21.44;45.21
11648;BME280;5880;52.342;9.662;2022-10-10T12:16:15;100793.31;;;21.47;45.43
11648;BME280;5880;52.342;9.662;2022-10-10T12:21:17;100795.16;;;21.52;45.54
11648;BME280;5880;52.342;9.662;2022-10-10T12:23:59;100799.00;;;21.56;45.38
11648;BME280;5880;52.342;9.662;2022-10-10T12:29:45;100793.88;;;21.63;45.48
11648;BME280;5880;52.342;9.662;2022-10-10T12:37:24;100798.06;;;21.79;45.43
11648;BME280;5880;52.342;9.662;2022-10-10T12:42:58;100792.66;;;21.88;44.82
11648;BME280;5880;52.342;9.662;2022-10-10T12:48:01;100783.91;;;21.95;44.56
11648;BME280;5880;52.342;9.662;2022-10-10T12:50:36;100790.00;;;21.97;44.60
11648;BME280;5880;52.342;9.662;2022-10-10T12:53:15;100796.09;;;21.99;44.63
11648;BME280;5880;52.342;9.662;2022-10-10T12:55:49;100795.47;;;22.02;44.64
11648;BME280;5880;52.342;9.662;2022-10-10T12:58:31;100789.91;;;22.02;44.48
11648;BME280;5880;52.342;9.662;2022-10-10T13:01:01;100787.13;;;22.02;44.64
11648;BME280;5880;52.342;9.662;2022-10-10T13:03:44;100791.53;;;22.03;44.46
11648;BME280;5880;52.342;9.662;2022-10-10T13:08:53;100780.22;;;21.99;44.45
11648;BME280;5880;52.342;9.662;2022-10-10T13:11:20;100780.22;;;21.99;44.57
11648;BME280;5880;52.342;9.662;2022-10-10T13:13:55;100780.50;;;21.98;44.43
11648;BME280;5880;52.342;9.662;2022-10-10T13:16:27;100780.41;;;22.03;44.36
11648;BME280;5880;52.342;9.662;2022-10-10T13:18:55;100776.00;;;22.02;44.44
11648;BME280;5880;52.342;9.662;2022-10-10T13:21:24;100781.75;;;22.05;44.45
11648;BME280;5880;52.342;9.662;2022-10-10T13:23:55;100779.50;;;22.07;44.33
11648;BME280;5880;52.342;9.662;2022-10-10T13:26:35;100779.22;;;22.09;44.26
11648;BME280;5880;52.342;9.662;2022-10-10T13:32:05;100800.31;;;22.10;43.78
11648;BME280;5880;52.342;9.662;2022-10-10T13:34:36;100799.50;;;22.09;43.67
11648;BME280;5880;52.342;9.662;2022-10-10T13:37:05;100799.50;;;22.09;43.45
11648;BME280;5880;52.342;9.662;2022-10-10T13:39:35;100800.84;;;22.12;43.72
11648;BME280;5880;52.342;9.662;2022-10-10T13:42:02;100799.72;;;22.13;43.48
11648;BME280;5880;52.342;9.662;2022-10-10T13:44:52;100806.13;;;22.13;43.23
11648;BME280;5880;52.342;9.662;2022-10-10T14:01:44;100812.97;;;22.21;43.05
11648;BME280;5880;52.342;9.662;2022-10-10T14:04:32;100804.91;;;22.20;43.09
11648;BME280;5880;52.342;9.662;2022-10-10T14:07:17;100808.81;;;22.19;43.01
11648;BME280;5880;52.342;9.662;2022-10-10T14:12:28;100814.38;;;22.19;42.99
11648;BME280;5880;52.342;9.662;2022-10-10T14:14:58;100815.50;;;22.18;42.83
11648;BME280;5880;52.342;9.662;2022-10-10T14:17:25;100810.78;;;22.18;42.72
11648;BME280;5880;52.342;9.662;2022-10-10T14:19:51;100821.09;;;22.18;42.86
11648;BME280;5880;52.342;9.662;2022-10-10T14:22:18;100818.59;;;22.16;42.80
11648;BME280;5880;52.342;9.662;2022-10-10T14:24:44;100808.09;;;22.13;42.66
11648;BME280;5880;52.342;9.662;2022-10-10T14:27:23;100810.06;;;22.12;42.62
11648;BME280;5880;52.342;9.662;2022-10-10T14:29:52;100806.50;;;22.07;42.69
11648;BME280;5880;52.342;9.662;2022-10-10T14:32:19;100811.03;;;22.03;42.68
11648;BME280;5880;52.342;9.662;2022-10-10T14:34:45;100808.56;;;22.01;42.86
11648;BME280;5880;52.342;9.662;2022-10-10T14:37:26;100816.06;;;22.01;42.65
11648;BME280;5880;52.342;9.662;2022-10-10T14:39:54;100812.25;;;21.97;42.92
11648;BME280;5880;52.342;9.662;2022-10-10T14:42:22;100812.56;;;21.95;43.02
11648;BME280;5880;52.342;9.662;2022-10-10T14:44:47;100813.19;;;21.92;42.80
11648;BME280;5880;52.342;9.662;2022-10-10T14:47:16;100819.84;;;21.91;42.81
11648;BME280;5880;52.342;9.662;2022-10-10T14:49:42;100818.84;;;21.87;42.76
11648;BME280;5880;52.342;9.662;2022-10-10T14:52:08;100813.56;;;21.85;42.94
11648;BME280;5880;52.342;9.662;2022-10-10T14:54:34;100808.91;;;21.81;42.94
11648;BME280;5880;52.342;9.662;2022-10-10T14:57:00;100817.78;;;21.83;42.85
11648;BME280;5880;52.342;9.662;2022-10-10T14:59:25;100823.09;;;21.79;43.02
11648;BME280;5880;52.342;9.662;2022-10-10T15:01:51;100827.31;;;21.77;43.15
11648;BME280;5880;52.342;9.662;2022-10-10T15:04:17;100822.09;;;21.75;43.11
11648;BME280;5880;52.342;9.662;2022-10-10T15:06:42;100831.00;;;21.72;43.41
11648;BME280;5880;52.342;9.662;2022-10-10T15:09:11;100833.25;;;21.70;43.41
11648;BME280;5880;52.342;9.662;2022-10-10T15:11:37;100837.81;;;21.66;43.38
11648;BME280;5880;52.342;9.662;2022-10-10T15:14:03;100834.50;;;21.64;43.11
11648;BME280;5880;52.342;9.662;2022-10-10T15:16:29;100840.63;;;21.61;43.37